Time;durP1;ratioP1;P1;durP2;ratioP2;P2;SDS_P1;SDS_P2;PMS_P1;PMS_P2;Temp;Humidity;BMP_temperature;BMP_pressure;BME280_temperature;BME280_humidity;BME280_pressure;Samples;Min_cycle;Max_cycle;Signal;HPM_P1;HPM_P2
2021/03/04 00:02:24;;;;;;;106.13;49.77;;;;;;;;;;5052846;28;20021;-80
2021/03/04 00:04:49;;;;;;;97.97;49.17;;;;;;;;;;5052830;28;20017;-80
2021/03/04 00:07:14;;;;;;;105.20;50.03;;;;;;;;;;5053495;28;20054;-80
2021/03/04 00:09:40;;;;;;;92.60;47.73;;;;;;;;;;5054394;28;20349;-80
2021/03/04 00:12:05;;;;;;;99.50;47.73;;;;;;;;;;5054162;28;20025;-80
2021/03/04 00:14:30;;;;;;;107.97;51.60;;;;;;;;;;5065999;28;20563;-81
2021/03/04 00:16:56;;;;;;;121.90;57.60;;;;;;;;;;5052932;28;20021;-80
2021/03/04 00:19:22;;;;;;;112.07;55.27;;;;;;;;;;5069502;28;20033;-80
2021/03/04 00:21:47;;;;;;;106.30;53.60;;;;;;;;;;5069509;28;20051;-80
2021/03/04 00:24:12;;;;;;;101.30;49.17;;;;;;;;;;5068686;28;20107;-80
2021/03/04 00:26:37;;;;;;;110.03;51.07;;;;;;;;;;5053975;28;20531;-80
2021/03/04 00:29:02;;;;;;;106.63;50.90;;;;;;;;;;5052199;28;20119;-80
2021/03/04 00:31:28;;;;;;;99.77;48.13;;;;;;;;;;5052663;28;20017;-80
2021/03/04 00:33:53;;;;;;;113.93;52.87;;;;;;;;;;5052923;28;20017;-80
2021/03/04 00:36:18;;;;;;;112.17;51.10;;;;;;;;;;5052522;28;20017;-80
2021/03/04 00:38:43;;;;;;;94.30;46.10;;;;;;;;;;5069303;28;20017;-80
2021/03/04 00:41:09;;;;;;;117.70;54.03;;;;;;;;;;5053455;28;20059;-80
2021/03/04 00:43:34;;;;;;;117.57;53.80;;;;;;;;;;5052587;28;20622;-80
2021/03/04 00:45:59;;;;;;;114.17;50.97;;;;;;;;;;5068882;28;20027;-80
2021/03/04 00:48:25;;;;;;;106.73;48.93;;;;;;;;;;5052311;28;20020;-80
2021/03/04 00:50:50;;;;;;;119.33;54.47;;;;;;;;;;5069104;28;20017;-80
2021/03/04 00:53:15;;;;;;;137.67;56.60;;;;;;;;;;5053563;28;20009;-80
2021/03/04 00:55:40;;;;;;;132.13;56.27;;;;;;;;;;5053659;28;20423;-80
2021/03/04 00:58:05;;;;;;;130.43;54.97;;;;;;;;;;5068740;28;20024;-80
2021/03/04 01:00:31;;;;;;;136.20;56.67;;;;;;;;;;5063664;28;20024;-80
2021/03/04 01:02:56;;;;;;;140.93;54.80;;;;;;;;;;5053418;28;20029;-80
2021/03/04 01:05:21;;;;;;;133.37;54.47;;;;;;;;;;5053127;28;20017;-80
2021/03/04 01:07:46;;;;;;;139.87;55.03;;;;;;;;;;5053245;28;20020;-80
2021/03/04 01:10:13;;;;;;;132.10;55.10;;;;;;;;;;5053132;28;20024;-80
2021/03/04 01:12:39;;;;;;;134.93;55.07;;;;;;;;;;5068293;28;20028;-81
2021/03/04 01:15:07;;;;;;;142.93;57.10;;;;;;;;;;5068599;28;20017;-80
2021/03/04 01:17:32;;;;;;;138.37;56.27;;;;;;;;;;5068220;28;20103;-80
2021/03/04 01:19:57;;;;;;;141.10;54.37;;;;;;;;;;5068474;28;20098;-80
2021/03/04 01:22:22;;;;;;;129.30;53.70;;;;;;;;;;5068318;28;20025;-80
2021/03/04 01:24:48;;;;;;;136.03;53.00;;;;;;;;;;5067658;28;20123;-80
2021/03/04 01:27:13;;;;;;;137.13;53.03;;;;;;;;;;5051285;28;20056;-80
2021/03/04 01:29:38;;;;;;;135.30;54.57;;;;;;;;;;5051528;28;20020;-80
2021/03/04 01:32:04;;;;;;;129.23;52.83;;;;;;;;;;5051465;28;20071;-80
2021/03/04 01:34:29;;;;;;;128.87;50.27;;;;;;;;;;5051420;28;20321;-80
2021/03/04 01:36:54;;;;;;;126.30;51.63;;;;;;;;;;5052803;28;20075;-80
2021/03/04 01:39:19;;;;;;;134.10;51.43;;;;;;;;;;5052682;28;20052;-80
2021/03/04 01:41:44;;;;;;;139.07;50.97;;;;;;;;;;5063098;28;20017;-80
2021/03/04 01:44:10;;;;;;;133.03;51.53;;;;;;;;;;5051246;28;20028;-80
2021/03/04 01:46:36;;;;;;;138.67;50.67;;;;;;;;;;5051391;28;20017;-80
2021/03/04 01:49:01;;;;;;;145.67;53.57;;;;;;;;;;5052756;28;20437;-80
2021/03/04 01:51:26;;;;;;;150.90;52.30;;;;;;;;;;5052637;28;20021;-80
2021/03/04 01:53:51;;;;;;;125.53;50.97;;;;;;;;;;5051413;28;20558;-80
2021/03/04 01:56:16;;;;;;;140.23;51.43;;;;;;;;;;5052208;28;20013;-80
2021/03/04 01:58:42;;;;;;;136.03;53.27;;;;;;;;;;5050995;28;20024;-80
2021/03/04 02:01:07;;;;;;;145.97;52.87;;;;;;;;;;5052317;28;20029;-80
2021/03/04 02:03:32;;;;;;;171.57;54.63;;;;;;;;;;5067437;28;20064;-80
2021/03/04 02:05:57;;;;;;;158.90;53.43;;;;;;;;;;5051008;28;20074;-80
2021/03/04 02:08:49;;;;;;;130.10;52.00;;;;;;;;;;5067680;28;20020;-80
2021/03/04 02:11:18;;;;;;;122.50;50.47;;;;;;;;;;5083099;28;20033;-80
2021/03/04 02:13:47;;;;;;;127.23;50.87;;;;;;;;;;5050737;28;20017;-80
2021/03/04 02:16:17;;;;;;;122.77;49.63;;;;;;;;;;5067550;28;20025;-80
2021/03/04 02:18:48;;;;;;;149.90;49.83;;;;;;;;;;5067398;28;20025;-80
2021/03/04 02:21:32;;;;;;;138.43;51.77;;;;;;;;;;5067422;28;20028;-80
2021/03/04 02:24:09;;;;;;;125.80;47.87;;;;;;;;;;5067407;28;20017;-80
2021/03/04 02:26:53;;;;;;;119.83;48.03;;;;;;;;;;5051112;28;20044;-80
2021/03/04 02:29:20;;;;;;;114.30;47.80;;;;;;;;;;5052170;28;20005;-81
2021/03/04 02:31:46;;;;;;;122.93;48.83;;;;;;;;;;5052267;28;20093;-80
2021/03/04 02:34:13;;;;;;;119.43;49.27;;;;;;;;;;5056160;28;20492;-80
2021/03/04 02:36:39;;;;;;;124.90;50.83;;;;;;;;;;5052092;28;20526;-80
2021/03/04 02:39:06;;;;;;;130.63;51.73;;;;;;;;;;5052218;28;20029;-80
2021/03/04 02:41:35;;;;;;;114.67;47.77;;;;;;;;;;5051589;28;20059;-80
2021/03/04 02:44:02;;;;;;;107.30;45.57;;;;;;;;;;5052224;28;20053;-80
2021/03/04 02:46:28;;;;;;;108.03;43.03;;;;;;;;;;5050747;28;20052;-80
2021/03/04 02:48:53;;;;;;;112.43;46.30;;;;;;;;;;5051917;28;20013;-80
2021/03/04 02:51:18;;;;;;;108.57;45.37;;;;;;;;;;5051821;28;20096;-80
2021/03/04 02:53:44;;;;;;;124.23;47.20;;;;;;;;;;5050482;28;20368;-80
2021/03/04 02:56:10;;;;;;;126.87;47.73;;;;;;;;;;5051511;28;20029;-80
2021/03/04 02:58:36;;;;;;;125.07;46.23;;;;;;;;;;5054505;28;20071;-80
2021/03/04 03:01:01;;;;;;;126.77;46.87;;;;;;;;;;5054294;28;20036;-81
2021/03/04 03:03:28;;;;;;;128.90;46.17;;;;;;;;;;5054524;28;20017;-80
2021/03/04 03:05:53;;;;;;;133.00;48.70;;;;;;;;;;5053879;28;20031;-80
2021/03/04 03:08:18;;;;;;;144.63;49.17;;;;;;;;;;5054218;28;20017;-80
2021/03/04 03:10:48;;;;;;;138.83;47.80;;;;;;;;;;5054098;28;20591;-80
2021/03/04 03:13:17;;;;;;;126.67;45.90;;;;;;;;;;5055435;28;20032;-81
2021/03/04 03:15:42;;;;;;;131.47;49.97;;;;;;;;;;5055164;28;20476;-80
2021/03/04 03:18:07;;;;;;;130.10;48.07;;;;;;;;;;5053558;28;20083;-80
2021/03/04 03:20:33;;;;;;;136.63;47.50;;;;;;;;;;5053989;28;20116;-80
2021/03/04 03:22:58;;;;;;;122.33;44.97;;;;;;;;;;5053723;28;20052;-80
2021/03/04 03:25:23;;;;;;;132.60;47.57;;;;;;;;;;5055276;28;20457;-80
2021/03/04 03:27:49;;;;;;;123.37;44.20;;;;;;;;;;5053659;28;20437;-80
2021/03/04 03:30:16;;;;;;;121.80;42.20;;;;;;;;;;5053918;28;20025;-81
2021/03/04 03:32:44;;;;;;;114.60;41.97;;;;;;;;;;5055203;28;20046;-81
2021/03/04 03:35:10;;;;;;;105.70;41.33;;;;;;;;;;5053361;28;20041;-81
2021/03/04 03:37:36;;;;;;;99.07;38.93;;;;;;;;;;5055158;28;20067;-81
2021/03/04 03:40:03;;;;;;;94.17;36.33;;;;;;;;;;5053024;28;20159;-80
2021/03/04 03:42:29;;;;;;;93.00;36.20;;;;;;;;;;5054735;28;20075;-81
2021/03/04 03:44:55;;;;;;;82.63;34.65;;;;;;;;;;5053445;28;20496;-81
2021/03/04 03:47:20;;;;;;;92.93;36.13;;;;;;;;;;5054797;28;20047;-80
2021/03/04 03:49:46;;;;;;;99.90;38.03;;;;;;;;;;5053380;28;20107;-81
2021/03/04 03:52:11;;;;;;;94.40;37.03;;;;;;;;;;5053239;28;20028;-81
2021/03/04 03:54:37;;;;;;;93.13;36.70;;;;;;;;;;5053374;28;20117;-81
2021/03/04 03:57:03;;;;;;;97.27;37.20;;;;;;;;;;5053352;28;20025;-81
2021/03/04 03:59:30;;;;;;;92.20;35.97;;;;;;;;;;5053385;28;20040;-80
2021/03/04 04:01:56;;;;;;;84.73;33.77;;;;;;;;;;5053076;28;20112;-81
2021/03/04 04:04:21;;;;;;;91.03;33.87;;;;;;;;;;5053160;28;20380;-81
2021/03/04 04:06:47;;;;;;;91.97;36.47;;;;;;;;;;5053240;28;20029;-80
2021/03/04 04:09:13;;;;;;;94.30;36.43;;;;;;;;;;5052731;28;20032;-80
2021/03/04 04:11:38;;;;;;;84.20;33.13;;;;;;;;;;5053658;28;20025;-80
2021/03/04 04:14:03;;;;;;;85.37;33.17;;;;;;;;;;5052175;28;20021;-80
2021/03/04 04:16:29;;;;;;;80.57;32.47;;;;;;;;;;5052457;28;20025;-80
2021/03/04 04:18:57;;;;;;;80.73;32.33;;;;;;;;;;5053670;28;20120;-80
2021/03/04 04:21:23;;;;;;;81.77;33.27;;;;;;;;;;5052101;28;20071;-80
2021/03/04 04:23:48;;;;;;;91.40;35.30;;;;;;;;;;5052010;28;20056;-80
2021/03/04 04:26:14;;;;;;;85.87;33.73;;;;;;;;;;5052330;28;20031;-80
2021/03/04 04:28:39;;;;;;;88.60;33.17;;;;;;;;;;5052602;28;20025;-80
2021/03/04 04:31:05;;;;;;;90.83;34.30;;;;;;;;;;5051827;28;20028;-80
2021/03/04 04:33:30;;;;;;;91.77;32.63;;;;;;;;;;5053115;28;20380;-80
2021/03/04 04:35:55;;;;;;;84.33;32.33;;;;;;;;;;5051724;28;20070;-80
2021/03/04 04:38:21;;;;;;;86.17;33.80;;;;;;;;;;5053592;28;20090;-80
2021/03/04 04:40:46;;;;;;;89.37;33.23;;;;;;;;;;5051993;28;20021;-80
2021/03/04 04:43:11;;;;;;;91.77;31.27;;;;;;;;;;5052036;28;20025;-80
2021/03/04 04:45:36;;;;;;;81.37;30.83;;;;;;;;;;5052255;28;20013;-80
2021/03/04 04:48:02;;;;;;;85.43;31.70;;;;;;;;;;5052272;28;20158;-80
2021/03/04 04:50:27;;;;;;;82.00;32.17;;;;;;;;;;5052196;28;20025;-80
2021/03/04 04:52:52;;;;;;;69.47;28.50;;;;;;;;;;5053571;28;20413;-80
2021/03/04 04:55:18;;;;;;;72.40;27.40;;;;;;;;;;5051896;28;20029;-80
2021/03/04 04:57:43;;;;;;;86.70;30.53;;;;;;;;;;5052122;28;20013;-80
2021/03/04 05:00:09;;;;;;;78.63;28.27;;;;;;;;;;5052150;28;20476;-80
2021/03/04 05:02:34;;;;;;;76.87;28.57;;;;;;;;;;5052054;28;20017;-80
2021/03/04 05:05:00;;;;;;;75.70;26.87;;;;;;;;;;5052138;28;20074;-80
2021/03/04 05:07:25;;;;;;;79.43;29.17;;;;;;;;;;5051724;28;20017;-80
2021/03/04 05:09:50;;;;;;;75.77;27.27;;;;;;;;;;5053050;28;20033;-80
2021/03/04 05:12:15;;;;;;;74.70;27.70;;;;;;;;;;5051730;28;20021;-80
2021/03/04 05:14:41;;;;;;;77.43;28.23;;;;;;;;;;5051850;28;20234;-80
2021/03/04 05:17:06;;;;;;;73.60;27.10;;;;;;;;;;5051773;28;20017;-80
2021/03/04 05:19:31;;;;;;;82.57;29.90;;;;;;;;;;5052400;28;20128;-80
2021/03/04 05:21:57;;;;;;;94.80;31.30;;;;;;;;;;5051788;28;20037;-81
2021/03/04 05:24:22;;;;;;;87.70;28.87;;;;;;;;;;5051495;28;20112;-80
2021/03/04 05:26:47;;;;;;;80.73;30.73;;;;;;;;;;5051746;28;20033;-80
2021/03/04 05:29:12;;;;;;;82.33;29.27;;;;;;;;;;5051490;28;20025;-80
2021/03/04 05:31:38;;;;;;;79.43;29.20;;;;;;;;;;5051532;28;20023;-80
2021/03/04 05:34:03;;;;;;;79.83;29.43;;;;;;;;;;5052831;28;20044;-80
2021/03/04 05:36:28;;;;;;;91.13;31.63;;;;;;;;;;5051436;28;20009;-79
2021/03/04 05:38:53;;;;;;;85.07;29.03;;;;;;;;;;5051207;28;20017;-80
2021/03/04 05:41:22;;;;;;;87.80;31.30;;;;;;;;;;5051377;28;20021;-80
2021/03/04 05:43:48;;;;;;;94.83;31.90;;;;;;;;;;5052602;28;20166;-80
2021/03/04 05:46:14;;;;;;;85.07;30.73;;;;;;;;;;5052546;28;20029;-80
2021/03/04 05:48:42;;;;;;;94.90;32.20;;;;;;;;;;5052518;28;20460;-80
2021/03/04 05:51:07;;;;;;;91.67;30.37;;;;;;;;;;5051391;28;20070;-80
2021/03/04 05:53:33;;;;;;;103.83;34.37;;;;;;;;;;5050872;28;20017;-80
2021/03/04 05:55:59;;;;;;;106.40;33.50;;;;;;;;;;5050969;28;20025;-80
2021/03/04 05:58:24;;;;;;;107.90;34.93;;;;;;;;;;5052373;28;20024;-80
2021/03/04 06:00:49;;;;;;;113.63;33.10;;;;;;;;;;5050733;28;20110;-80
2021/03/04 06:03:15;;;;;;;104.20;34.03;;;;;;;;;;5052637;28;20100;-80
2021/03/04 06:05:40;;;;;;;108.50;33.50;;;;;;;;;;5050723;28;20166;-80
2021/03/04 06:08:07;;;;;;;107.87;34.27;;;;;;;;;;5051259;28;20013;-80
2021/03/04 06:10:32;;;;;;;109.40;34.60;;;;;;;;;;5050973;28;20017;-80
2021/03/04 06:13:01;;;;;;;109.27;35.10;;;;;;;;;;5051035;28;20036;-80
2021/03/04 06:15:27;;;;;;;98.53;32.53;;;;;;;;;;5050926;28;20107;-80
2021/03/04 06:17:58;;;;;;;100.87;31.80;;;;;;;;;;5038545;28;20435;-80
2021/03/04 06:20:34;;;;;;;92.20;30.55;;;;;;;;;;5052544;28;20104;-80
2021/03/04 06:22:59;;;;;;;97.13;31.17;;;;;;;;;;5038673;28;20033;-80
2021/03/04 06:25:24;;;;;;;98.87;32.87;;;;;;;;;;5051210;28;20388;-80
2021/03/04 06:27:50;;;;;;;88.73;30.37;;;;;;;;;;5050669;28;20464;-80
2021/03/04 06:30:16;;;;;;;81.43;30.13;;;;;;;;;;5050871;28;20024;-80
2021/03/04 06:32:53;;;;;;;84.23;30.03;;;;;;;;;;5055829;28;20025;-80
2021/03/04 06:35:19;;;;;;;82.70;30.10;;;;;;;;;;5055077;28;20024;-80
2021/03/04 06:37:44;;;;;;;72.33;26.53;;;;;;;;;;5056229;28;20013;-80
2021/03/04 06:40:17;;;;;;;71.07;27.00;;;;;;;;;;5054959;28;20163;-80
2021/03/04 06:42:43;;;;;;;71.53;26.27;;;;;;;;;;5054578;28;20021;-80
2021/03/04 06:45:20;;;;;;;74.20;28.43;;;;;;;;;;5055808;28;20025;-80
2021/03/04 06:47:45;;;;;;;71.03;27.80;;;;;;;;;;5054657;28;20021;-80
2021/03/04 06:50:20;;;;;;;70.00;26.27;;;;;;;;;;5054624;28;20029;-80
2021/03/04 06:52:45;;;;;;;74.50;27.30;;;;;;;;;;5054804;28;20013;-79
2021/03/04 06:55:11;;;;;;;70.33;27.57;;;;;;;;;;5055905;28;20035;-79
2021/03/04 06:57:36;;;;;;;70.57;28.20;;;;;;;;;;5054728;28;20545;-80
2021/03/04 07:00:02;;;;;;;71.73;27.33;;;;;;;;;;5055877;28;20029;-80
2021/03/04 07:02:31;;;;;;;73.73;29.17;;;;;;;;;;5054447;28;20025;-80
2021/03/04 07:04:57;;;;;;;70.20;26.10;;;;;;;;;;5054325;28;20033;-80
2021/03/04 07:07:24;;;;;;;69.00;26.23;;;;;;;;;;5054228;28;20084;-80
2021/03/04 07:09:50;;;;;;;67.13;26.63;;;;;;;;;;5054502;28;20036;-80
2021/03/04 07:12:16;;;;;;;65.67;25.50;;;;;;;;;;5055469;28;20031;-80
2021/03/04 07:14:42;;;;;;;64.23;24.97;;;;;;;;;;5054312;28;20431;-80
2021/03/04 07:17:07;;;;;;;59.67;25.13;;;;;;;;;;5054298;28;20024;-80
2021/03/04 07:19:33;;;;;;;63.33;25.87;;;;;;;;;;5053788;28;20484;-81
2021/03/04 07:21:58;;;;;;;65.53;25.73;;;;;;;;;;5054307;28;20045;-80
2021/03/04 07:24:24;;;;;;;64.30;25.27;;;;;;;;;;5054004;28;20098;-80
2021/03/04 07:26:50;;;;;;;54.00;22.37;;;;;;;;;;5054045;28;20078;-79
2021/03/04 07:29:15;;;;;;;51.30;22.37;;;;;;;;;;5053934;28;20059;-81
2021/03/04 07:31:45;;;;;;;55.87;22.47;;;;;;;;;;5053778;28;20545;-80
2021/03/04 07:34:15;;;;;;;57.10;23.33;;;;;;;;;;5052521;28;20483;-81
2021/03/04 07:36:43;;;;;;;61.83;24.03;;;;;;;;;;5053930;28;20029;-80
2021/03/04 07:39:09;;;;;;;51.90;21.87;;;;;;;;;;5052331;28;20115;-80
2021/03/04 07:41:35;;;;;;;55.87;22.50;;;;;;;;;;5053639;28;20477;-80
2021/03/04 07:44:00;;;;;;;54.87;20.73;;;;;;;;;;5053277;28;20365;-80
2021/03/04 07:46:29;;;;;;;59.83;23.77;;;;;;;;;;5054390;28;20055;-80
2021/03/04 07:48:55;;;;;;;53.47;21.67;;;;;;;;;;5052637;28;20021;-80
2021/03/04 07:51:20;;;;;;;58.43;21.93;;;;;;;;;;5053154;28;20357;-80
2021/03/04 07:53:46;;;;;;;58.17;23.73;;;;;;;;;;5053330;28;20020;-81
2021/03/04 07:56:24;;;;;;;62.10;25.07;;;;;;;;;;5054916;28;20033;-80
2021/03/04 07:58:49;;;;;;;64.47;24.57;;;;;;;;;;5052940;28;20029;-80
2021/03/04 08:01:14;;;;;;;58.60;24.00;;;;;;;;;;5053397;28;20025;-80
2021/03/04 08:03:44;;;;;;;60.33;25.53;;;;;;;;;;5053261;28;20112;-80
2021/03/04 08:06:09;;;;;;;61.40;23.47;;;;;;;;;;5052359;28;20389;-81
2021/03/04 08:08:38;;;;;;;72.27;28.73;;;;;;;;;;5053114;28;20025;-80
2021/03/04 08:11:03;;;;;;;63.80;26.70;;;;;;;;;;5038715;28;20028;-80
2021/03/04 08:13:39;;;;;;;71.17;27.37;;;;;;;;;;5054395;28;20025;-80
2021/03/04 08:16:14;;;;;;;71.33;29.40;;;;;;;;;;5052843;28;20017;-80
2021/03/04 08:18:40;;;;;;;70.50;28.63;;;;;;;;;;5054146;28;20021;-81
2021/03/04 08:21:06;;;;;;;90.73;30.67;;;;;;;;;;5052810;28;20036;-79
2021/03/04 08:23:32;;;;;;;93.17;34.80;;;;;;;;;;5051070;28;20032;-81
2021/03/04 08:25:58;;;;;;;100.07;34.60;;;;;;;;;;5052522;28;20029;-81
2021/03/04 08:28:25;;;;;;;103.03;35.47;;;;;;;;;;5051733;28;20013;-81
2021/03/04 08:30:50;;;;;;;106.93;36.33;;;;;;;;;;5078413;28;20021;-80
2021/03/04 08:33:16;;;;;;;131.10;39.13;;;;;;;;;;5053787;28;20017;-80
2021/03/04 08:35:45;;;;;;;119.77;38.20;;;;;;;;;;5052677;28;20021;-80
2021/03/04 08:38:11;;;;;;;126.37;40.80;;;;;;;;;;5052135;28;20052;-81
2021/03/04 08:40:43;;;;;;;141.90;41.77;;;;;;;;;;5052454;28;20078;-81
2021/03/04 08:43:16;;;;;;;127.23;39.00;;;;;;;;;;5053519;28;20045;-80
2021/03/04 08:45:41;;;;;;;;;;;;;;;;;;5052288;28;20048;-80
2021/03/04 08:48:07;;;;;;;142.47;43.17;;;;;;;;;;5050890;28;19951;-81
2021/03/04 08:50:37;;;;;;;125.00;38.60;;;;;;;;;;5051148;28;20013;-80
2021/03/04 08:53:06;;;;;;;140.60;43.70;;;;;;;;;;5050962;28;20049;-80
2021/03/04 08:55:34;;;;;;;143.60;45.33;;;;;;;;;;5050969;28;20024;-80
2021/03/04 08:58:06;;;;;;;142.90;43.80;;;;;;;;;;5051995;28;20032;-80
2021/03/04 09:00:31;;;;;;;140.32;43.92;;;;;;;;;;5049984;28;20111;-80
2021/03/04 09:03:05;;;;;;;126.77;40.03;;;;;;;;;;5050395;28;20064;-80
2021/03/04 09:05:30;;;;;;;131.73;41.70;;;;;;;;;;5051305;28;20369;-80
2021/03/04 09:07:55;;;;;;;139.23;44.23;;;;;;;;;;5051532;28;20035;-80
2021/03/04 09:10:21;;;;;;;133.23;40.70;;;;;;;;;;5052683;28;20074;-80
2021/03/04 09:12:46;;;;;;;223.53;70.83;;;;;;;;;;5051614;28;20119;-81
2021/03/04 09:15:12;;;;;;;172.33;59.53;;;;;;;;;;5051504;28;20542;-81
2021/03/04 09:17:41;;;;;;;148.50;50.50;;;;;;;;;;5051362;28;20024;-81
2021/03/04 09:20:07;;;;;;;144.17;48.17;;;;;;;;;;5051180;28;20538;-81
2021/03/04 09:22:33;;;;;;;122.47;41.40;;;;;;;;;;5051012;28;20052;-81
2021/03/04 09:24:58;;;;;;;119.40;37.87;;;;;;;;;;5050886;28;20029;-80
2021/03/04 09:27:24;;;;;;;120.23;36.40;;;;;;;;;;5051748;28;20059;-80
2021/03/04 09:29:49;;;;;;;110.03;35.03;;;;;;;;;;5052032;28;20013;-81
2021/03/04 09:32:14;;;;;;;109.10;35.87;;;;;;;;;;5051688;28;20012;-80
2021/03/04 09:34:40;;;;;;;100.93;32.70;;;;;;;;;;5052451;28;20027;-80
2021/03/04 09:37:14;;;;;;;85.17;31.10;;;;;;;;;;5050067;28;20025;-80
2021/03/04 09:39:46;;;;;;;86.33;30.23;;;;;;;;;;5052237;28;20025;-80
2021/03/04 09:42:13;;;;;;;80.72;27.70;;;;;;;;;;5049855;28;20206;-80
2021/03/04 09:44:49;;;;;;;83.10;28.60;;;;;;;;;;5051336;28;20044;-80
2021/03/04 09:47:15;;;;;;;102.93;33.50;;;;;;;;;;5051140;28;20035;-81
2021/03/04 09:49:40;;;;;;;89.67;30.67;;;;;;;;;;5050975;28;20013;-80
2021/03/04 09:52:15;;;;;;;95.43;31.43;;;;;;;;;;5050905;28;20032;-80
2021/03/04 09:54:40;;;;;;;86.53;29.60;;;;;;;;;;5051155;28;20017;-81
2021/03/04 09:57:07;;;;;;;89.70;29.67;;;;;;;;;;5051955;28;20021;-81
2021/03/04 09:59:52;;;;;;;82.07;28.93;;;;;;;;;;5050745;28;20060;-82
2021/03/04 10:02:17;;;;;;;88.77;27.70;;;;;;;;;;5050838;28;20366;-80
2021/03/04 10:04:56;;;;;;;81.73;29.83;;;;;;;;;;5049443;28;20027;-80
2021/03/04 10:07:22;;;;;;;83.20;28.10;;;;;;;;;;5050664;28;20684;-80
2021/03/04 10:09:47;;;;;;;87.47;30.30;;;;;;;;;;5050928;28;20036;-79
2021/03/04 10:12:12;;;;;;;95.13;30.60;;;;;;;;;;5050469;28;20036;-79
2021/03/04 10:14:48;;;;;;;88.43;30.47;;;;;;;;;;5050730;28;20018;-79
2021/03/04 10:17:14;;;;;;;86.20;29.10;;;;;;;;;;5039337;28;20051;-79
2021/03/04 10:19:40;;;;;;;88.13;29.43;;;;;;;;;;5050886;28;20046;-79
2021/03/04 10:22:05;;;;;;;83.77;28.27;;;;;;;;;;5050449;28;20432;-80
2021/03/04 10:24:31;;;;;;;79.03;26.77;;;;;;;;;;5050307;28;20123;-80
2021/03/04 10:26:59;;;;;;;84.53;28.77;;;;;;;;;;5051656;28;20025;-80
2021/03/04 10:29:27;;;;;;;83.33;29.03;;;;;;;;;;5050049;28;20009;-80
2021/03/04 10:31:53;;;;;;;78.83;28.43;;;;;;;;;;5051292;28;20024;-80
2021/03/04 10:34:18;;;;;;;91.77;34.93;;;;;;;;;;5049834;28;20009;-80
2021/03/04 10:36:44;;;;;;;81.47;28.93;;;;;;;;;;5050251;28;20024;-80
2021/03/04 10:39:09;;;;;;;78.00;26.63;;;;;;;;;;5050633;28;20021;-80
2021/03/04 10:41:34;;;;;;;80.63;27.47;;;;;;;;;;5049725;28;20020;-80
2021/03/04 10:43:59;;;;;;;81.13;26.97;;;;;;;;;;5050648;28;20407;-80
2021/03/04 10:46:27;;;;;;;91.07;28.73;;;;;;;;;;5050073;28;20021;-80
2021/03/04 10:48:52;;;;;;;96.67;30.47;;;;;;;;;;5049900;28;20502;-80
2021/03/04 10:51:17;;;;;;;104.60;31.73;;;;;;;;;;5050236;28;20013;-80
2021/03/04 10:53:42;;;;;;;108.83;29.97;;;;;;;;;;5051667;28;20013;-80
2021/03/04 10:56:07;;;;;;;91.77;28.17;;;;;;;;;;5050255;28;20025;-80
2021/03/04 10:58:33;;;;;;;97.70;29.37;;;;;;;;;;5050398;28;20108;-81
2021/03/04 11:00:58;;;;;;;93.40;30.10;;;;;;;;;;5050385;28;20013;-80
2021/03/04 11:03:24;;;;;;;109.00;30.47;;;;;;;;;;5051278;28;20044;-80
2021/03/04 11:05:50;;;;;;;100.37;30.67;;;;;;;;;;5050282;28;20083;-80
2021/03/04 11:08:15;;;;;;;99.63;29.90;;;;;;;;;;5050159;28;20469;-80
2021/03/04 11:10:40;;;;;;;110.37;32.63;;;;;;;;;;5049985;28;20025;-80
2021/03/04 11:13:05;;;;;;;110.20;32.37;;;;;;;;;;5046740;28;20056;-80
2021/03/04 11:15:31;;;;;;;87.90;27.40;;;;;;;;;;5050007;28;20500;-80
2021/03/04 11:17:56;;;;;;;101.43;27.60;;;;;;;;;;5053397;28;20361;-80
2021/03/04 11:20:21;;;;;;;90.50;27.53;;;;;;;;;;5053947;28;20033;-81
2021/03/04 11:22:47;;;;;;;97.97;27.00;;;;;;;;;;5055123;28;20064;-81
2021/03/04 11:25:12;;;;;;;89.90;25.90;;;;;;;;;;5053175;28;20025;-81
2021/03/04 11:27:37;;;;;;;90.53;25.73;;;;;;;;;;5054531;28;20021;-81
2021/03/04 11:30:04;;;;;;;85.03;25.10;;;;;;;;;;5052760;28;20025;-81
2021/03/04 11:32:29;;;;;;;92.37;28.77;;;;;;;;;;5053468;28;20104;-81
2021/03/04 11:34:55;;;;;;;89.03;25.33;;;;;;;;;;5053775;28;20040;-81
2021/03/04 11:37:20;;;;;;;78.57;23.80;;;;;;;;;;5054769;28;20021;-81
2021/03/04 11:39:45;;;;;;;81.47;24.43;;;;;;;;;;5053411;28;20017;-81
2021/03/04 11:42:10;;;;;;;80.17;24.50;;;;;;;;;;5053360;28;20574;-81
2021/03/04 11:44:35;;;;;;;84.23;24.57;;;;;;;;;;5053144;28;20025;-81
2021/03/04 11:47:01;;;;;;;89.57;24.30;;;;;;;;;;5052331;28;20029;-81
2021/03/04 11:49:26;;;;;;;84.47;25.00;;;;;;;;;;5054574;28;20025;-81
2021/03/04 11:51:51;;;;;;;78.77;23.10;;;;;;;;;;5052655;28;20036;-81
2021/03/04 11:54:16;;;;;;;76.67;23.50;;;;;;;;;;5052335;28;20447;-81
2021/03/04 11:56:42;;;;;;;71.40;21.47;;;;;;;;;;5053292;28;20040;-81
2021/03/04 11:59:11;;;;;;;85.90;25.63;;;;;;;;;;5054017;28;20131;-81
2021/03/04 12:01:36;;;;;;;158.27;44.20;;;;;;;;;;5052962;28;20532;-81
2021/03/04 12:04:04;;;;;;;156.03;46.40;;;;;;;;;;5053049;28;20094;-81
2021/03/04 12:06:29;;;;;;;90.87;28.40;;;;;;;;;;5053695;28;20021;-81
2021/03/04 12:08:54;;;;;;;73.63;23.97;;;;;;;;;;5053053;28;20021;-81
2021/03/04 12:11:20;;;;;;;74.70;21.50;;;;;;;;;;5053346;28;20024;-81
2021/03/04 12:13:45;;;;;;;76.13;23.77;;;;;;;;;;5052175;28;20016;-81
2021/03/04 12:16:11;;;;;;;68.57;21.23;;;;;;;;;;5052694;28;20044;-81
2021/03/04 12:18:36;;;;;;;70.20;21.50;;;;;;;;;;5052411;28;20029;-81
2021/03/04 12:21:02;;;;;;;63.20;19.80;;;;;;;;;;5053241;28;20027;-80
2021/03/04 12:23:27;;;;;;;69.27;20.57;;;;;;;;;;5052596;28;20020;-81
2021/03/04 12:25:53;;;;;;;63.77;20.20;;;;;;;;;;5051339;28;20494;-81
2021/03/04 12:28:18;;;;;;;61.47;19.53;;;;;;;;;;5051104;28;20353;-81
2021/03/04 12:30:43;;;;;;;56.33;20.13;;;;;;;;;;5051118;28;20017;-81
2021/03/04 12:33:09;;;;;;;62.07;20.10;;;;;;;;;;5052093;28;20108;-81
2021/03/04 12:35:34;;;;;;;53.53;17.93;;;;;;;;;;5052020;28;20017;-81
2021/03/04 12:37:59;;;;;;;58.93;17.87;;;;;;;;;;5045909;28;20024;-81
2021/03/04 12:40:28;;;;;;;56.33;18.47;;;;;;;;;;5047284;28;20430;-80
2021/03/04 12:42:53;;;;;;;55.67;16.87;;;;;;;;;;5048952;28;20033;-81
2021/03/04 12:45:19;;;;;;;50.20;16.97;;;;;;;;;;5052008;28;20614;-81
2021/03/04 12:47:44;;;;;;;45.47;15.43;;;;;;;;;;5051467;28;20403;-81
2021/03/04 12:50:09;;;;;;;41.37;13.57;;;;;;;;;;5053310;28;20075;-81
2021/03/04 12:52:35;;;;;;;45.67;14.87;;;;;;;;;;5051948;28;20078;-81
2021/03/04 12:55:00;;;;;;;43.40;14.23;;;;;;;;;;5052885;28;20017;-81
2021/03/04 12:57:25;;;;;;;47.03;14.13;;;;;;;;;;5051658;28;20078;-81
2021/03/04 12:59:51;;;;;;;45.17;14.67;;;;;;;;;;5052013;28;20048;-81
2021/03/04 13:02:16;;;;;;;39.03;14.13;;;;;;;;;;5052011;28;20020;-81
2021/03/04 13:04:42;;;;;;;45.80;13.97;;;;;;;;;;5051723;28;20078;-81
2021/03/04 13:07:07;;;;;;;45.50;15.40;;;;;;;;;;5052824;28;20500;-81
2021/03/04 13:09:32;;;;;;;49.73;16.67;;;;;;;;;;5051753;28;20017;-81
2021/03/04 13:11:58;;;;;;;50.53;16.87;;;;;;;;;;5051641;28;20070;-81
2021/03/04 13:14:24;;;;;;;46.03;16.27;;;;;;;;;;5052797;28;20481;-81
2021/03/04 13:16:49;;;;;;;47.27;15.70;;;;;;;;;;5051340;28;20484;-81
2021/03/04 13:19:14;;;;;;;58.73;18.90;;;;;;;;;;5051235;28;20020;-81
2021/03/04 13:21:39;;;;;;;55.73;18.67;;;;;;;;;;5051595;28;20019;-81
2021/03/04 13:24:05;;;;;;;58.10;17.90;;;;;;;;;;5051231;28;20017;-81
2021/03/04 13:26:30;;;;;;;75.07;20.80;;;;;;;;;;5052716;28;20067;-81
2021/03/04 13:28:55;;;;;;;64.43;20.30;;;;;;;;;;5051532;28;20444;-81
2021/03/04 13:31:20;;;;;;;68.70;18.93;;;;;;;;;;5051369;28;20021;-81
2021/03/04 13:33:46;;;;;;;65.93;20.67;;;;;;;;;;5052301;28;20100;-81
2021/03/04 13:36:11;;;;;;;62.77;19.20;;;;;;;;;;5050566;28;20101;-81
2021/03/04 13:38:36;;;;;;;67.80;22.57;;;;;;;;;;5051529;28;20021;-81
2021/03/04 13:41:02;;;;;;;67.13;20.70;;;;;;;;;;5050531;28;20108;-80
2021/03/04 13:43:27;;;;;;;61.30;21.17;;;;;;;;;;5050900;28;20066;-81
2021/03/04 13:45:54;;;;;;;67.67;21.43;;;;;;;;;;5050423;28;20487;-81
2021/03/04 13:48:19;;;;;;;71.07;24.33;;;;;;;;;;5050627;28;20749;-81
2021/03/04 13:50:44;;;;;;;78.57;23.67;;;;;;;;;;5051276;28;20150;-81
2021/03/04 13:53:09;;;;;;;84.70;24.60;;;;;;;;;;5049442;28;20067;-81
2021/03/04 13:55:35;;;;;;;82.27;24.57;;;;;;;;;;5052352;28;20088;-81
2021/03/04 13:58:00;;;;;;;73.60;21.80;;;;;;;;;;5049371;28;20468;-80
2021/03/04 14:00:25;;;;;;;91.40;27.23;;;;;;;;;;5050775;28;20031;-81
2021/03/04 14:02:50;;;;;;;77.00;26.30;;;;;;;;;;5050810;28;20021;-81
2021/03/04 14:05:16;;;;;;;82.87;28.47;;;;;;;;;;5051070;28;20101;-81
2021/03/04 14:07:41;;;;;;;87.30;26.43;;;;;;;;;;5050362;28;20021;-81
2021/03/04 14:10:07;;;;;;;87.80;25.80;;;;;;;;;;5049996;28;20025;-81